sensor_id;sensor_type;location;lat;lon;timestamp;P1;durP1;ratioP1;P2;durP2;ratioP2
52650;SDS011;38537;47.226;39.702;2022-11-20T00:01:30;10.10;;;8.50;;
52650;SDS011;38537;47.226;39.702;2022-11-20T00:03:58;11.02;;;8.68;;
52650;SDS011;38537;47.226;39.702;2022-11-20T00:06:26;9.30;;;8.25;;
52650;SDS011;38537;47.226;39.702;2022-11-20T00:08:55;10.70;;;8.25;;
52650;SDS011;38537;47.226;39.702;2022-11-20T00:11:24;10.68;;;7.53;;
52650;SDS011;38537;47.226;39.702;2022-11-20T00:13:54;8.82;;;7.93;;
52650;SDS011;38537;47.226;39.702;2022-11-20T00:16:24;9.00;;;8.07;;
52650;SDS011;38537;47.226;39.702;2022-11-20T00:18:54;11.02;;;8.40;;
52650;SDS011;38537;47.226;39.702;2022-11-20T00:21:22;10.98;;;9.05;;
52650;SDS011;38537;47.226;39.702;2022-11-20T00:23:51;10.25;;;8.35;;
52650;SDS011;38537;47.226;39.702;2022-11-20T00:26:21;10.88;;;8.85;;
52650;SDS011;38537;47.226;39.702;2022-11-20T00:28:56;11.18;;;7.95;;
52650;SDS011;38537;47.226;39.702;2022-11-20T00:31:26;13.75;;;8.70;;
52650;SDS011;38537;47.226;39.702;2022-11-20T00:33:54;12.80;;;8.10;;
52650;SDS011;38537;47.226;39.702;2022-11-20T00:36:23;10.73;;;8.43;;
52650;SDS011;38537;47.226;39.702;2022-11-20T00:38:53;12.57;;;7.82;;
52650;SDS011;38537;47.226;39.702;2022-11-20T00:41:23;8.70;;;7.13;;
52650;SDS011;38537;47.226;39.702;2022-11-20T00:43:54;12.32;;;7.95;;
52650;SDS011;38537;47.226;39.702;2022-11-20T00:46:25;9.73;;;8.60;;
52650;SDS011;38537;47.226;39.702;2022-11-20T00:48:53;12.40;;;8.35;;
52650;SDS011;38537;47.226;39.702;2022-11-20T00:51:22;13.38;;;8.75;;
52650;SDS011;38537;47.226;39.702;2022-11-20T00:53:51;12.45;;;8.73;;
52650;SDS011;38537;47.226;39.702;2022-11-20T00:56:21;12.38;;;8.20;;
52650;SDS011;38537;47.226;39.702;2022-11-20T00:58:50;11.50;;;8.40;;
52650;SDS011;38537;47.226;39.702;2022-11-20T01:01:22;12.27;;;9.25;;
52650;SDS011;38537;47.226;39.702;2022-11-20T01:03:51;10.85;;;7.95;;
52650;SDS011;38537;47.226;39.702;2022-11-20T01:06:24;11.07;;;8.25;;
52650;SDS011;38537;47.226;39.702;2022-11-20T01:08:57;11.57;;;8.95;;
52650;SDS011;38537;47.226;39.702;2022-11-20T01:11:27;11.65;;;8.45;;
52650;SDS011;38537;47.226;39.702;2022-11-20T01:13:58;13.32;;;9.23;;
52650;SDS011;38537;47.226;39.702;2022-11-20T01:16:31;12.90;;;9.48;;
52650;SDS011;38537;47.226;39.702;2022-11-20T01:19:04;10.95;;;9.13;;
52650;SDS011;38537;47.226;39.702;2022-11-20T01:21:35;11.93;;;8.88;;
52650;SDS011;38537;47.226;39.702;2022-11-20T01:24:05;10.73;;;8.20;;
52650;SDS011;38537;47.226;39.702;2022-11-20T01:26:37;12.43;;;8.70;;
52650;SDS011;38537;47.226;39.702;2022-11-20T01:29:07;10.63;;;9.27;;
52650;SDS011;38537;47.226;39.702;2022-11-20T01:31:39;13.35;;;8.48;;
52650;SDS011;38537;47.226;39.702;2022-11-20T01:34:08;14.07;;;9.50;;
52650;SDS011;38537;47.226;39.702;2022-11-20T01:36:38;13.30;;;9.27;;
52650;SDS011;38537;47.226;39.702;2022-11-20T01:39:07;12.25;;;9.32;;
52650;SDS011;38537;47.226;39.702;2022-11-20T01:41:39;13.73;;;9.98;;
52650;SDS011;38537;47.226;39.702;2022-11-20T01:49:59;11.75;;;8.82;;
52650;SDS011;38537;47.226;39.702;2022-11-20T01:52:36;12.80;;;9.32;;
52650;SDS011;38537;47.226;39.702;2022-11-20T01:55:17;11.98;;;9.15;;
52650;SDS011;38537;47.226;39.702;2022-11-20T01:57:49;13.15;;;10.15;;
52650;SDS011;38537;47.226;39.702;2022-11-20T02:00:17;15.65;;;12.07;;
52650;SDS011;38537;47.226;39.702;2022-11-20T02:03:06;15.68;;;12.77;;
52650;SDS011;38537;47.226;39.702;2022-11-20T02:05:38;16.35;;;12.65;;
52650;SDS011;38537;47.226;39.702;2022-11-20T02:08:10;17.53;;;12.93;;
52650;SDS011;38537;47.226;39.702;2022-11-20T02:10:39;16.45;;;12.85;;
52650;SDS011;38537;47.226;39.702;2022-11-20T02:13:06;14.80;;;11.65;;
52650;SDS011;38537;47.226;39.702;2022-11-20T02:15:53;14.60;;;10.52;;
52650;SDS011;38537;47.226;39.702;2022-11-20T02:18:21;16.67;;;10.05;;
52650;SDS011;38537;47.226;39.702;2022-11-20T02:20:53;12.50;;;10.10;;
52650;SDS011;38537;47.226;39.702;2022-11-20T02:23:32;13.50;;;10.85;;
52650;SDS011;38537;47.226;39.702;2022-11-20T02:26:11;11.65;;;9.27;;
52650;SDS011;38537;47.226;39.702;2022-11-20T02:28:41;12.38;;;9.70;;
52650;SDS011;38537;47.226;39.702;2022-11-20T02:31:08;12.55;;;9.57;;
52650;SDS011;38537;47.226;39.702;2022-11-20T02:33:36;14.43;;;9.30;;
52650;SDS011;38537;47.226;39.702;2022-11-20T02:36:03;12.27;;;9.77;;
52650;SDS011;38537;47.226;39.702;2022-11-20T02:38:31;13.43;;;9.85;;
52650;SDS011;38537;47.226;39.702;2022-11-20T02:40:58;12.63;;;10.13;;
52650;SDS011;38537;47.226;39.702;2022-11-20T02:43:26;15.93;;;10.18;;
52650;SDS011;38537;47.226;39.702;2022-11-20T02:45:53;12.43;;;10.18;;
52650;SDS011;38537;47.226;39.702;2022-11-20T02:48:20;13.15;;;10.25;;
52650;SDS011;38537;47.226;39.702;2022-11-20T02:50:50;14.98;;;9.88;;
52650;SDS011;38537;47.226;39.702;2022-11-20T02:53:17;14.15;;;10.00;;
52650;SDS011;38537;47.226;39.702;2022-11-20T02:55:45;12.88;;;9.98;;
52650;SDS011;38537;47.226;39.702;2022-11-20T02:58:12;13.15;;;10.55;;
52650;SDS011;38537;47.226;39.702;2022-11-20T03:00:39;12.48;;;9.95;;
52650;SDS011;38537;47.226;39.702;2022-11-20T03:03:06;14.25;;;10.80;;
52650;SDS011;38537;47.226;39.702;2022-11-20T03:05:34;14.70;;;10.80;;
52650;SDS011;38537;47.226;39.702;2022-11-20T03:08:01;13.43;;;10.88;;
52650;SDS011;38537;47.226;39.702;2022-11-20T03:10:28;15.30;;;10.65;;
52650;SDS011;38537;47.226;39.702;2022-11-20T03:12:55;12.73;;;9.75;;
52650;SDS011;38537;47.226;39.702;2022-11-20T03:15:23;12.25;;;9.60;;
52650;SDS011;38537;47.226;39.702;2022-11-20T03:17:54;13.68;;;10.43;;
52650;SDS011;38537;47.226;39.702;2022-11-20T03:20:22;12.35;;;9.80;;
52650;SDS011;38537;47.226;39.702;2022-11-20T03:22:50;13.23;;;10.20;;
52650;SDS011;38537;47.226;39.702;2022-11-20T03:25:17;14.27;;;10.63;;
52650;SDS011;38537;47.226;39.702;2022-11-20T03:27:44;11.90;;;9.90;;
52650;SDS011;38537;47.226;39.702;2022-11-20T03:30:11;13.15;;;10.25;;
52650;SDS011;38537;47.226;39.702;2022-11-20T03:32:39;15.02;;;12.00;;
52650;SDS011;38537;47.226;39.702;2022-11-20T03:35:06;13.98;;;11.48;;
52650;SDS011;38537;47.226;39.702;2022-11-20T03:37:34;14.60;;;10.52;;
52650;SDS011;38537;47.226;39.702;2022-11-20T03:40:04;12.57;;;10.35;;
52650;SDS011;38537;47.226;39.702;2022-11-20T03:42:32;15.50;;;11.82;;
52650;SDS011;38537;47.226;39.702;2022-11-20T03:45:12;14.55;;;11.68;;
52650;SDS011;38537;47.226;39.702;2022-11-20T03:47:44;15.10;;;11.93;;
52650;SDS011;38537;47.226;39.702;2022-11-20T03:50:12;14.68;;;12.27;;
52650;SDS011;38537;47.226;39.702;2022-11-20T03:52:40;14.20;;;11.20;;
52650;SDS011;38537;47.226;39.702;2022-11-20T03:55:07;13.13;;;10.50;;
52650;SDS011;38537;47.226;39.702;2022-11-20T03:57:35;14.18;;;11.27;;
52650;SDS011;38537;47.226;39.702;2022-11-20T04:00:03;16.40;;;11.85;;
52650;SDS011;38537;47.226;39.702;2022-11-20T04:02:31;15.57;;;11.57;;
52650;SDS011;38537;47.226;39.702;2022-11-20T04:04:58;12.85;;;10.77;;
52650;SDS011;38537;47.226;39.702;2022-11-20T04:07:25;16.23;;;11.25;;
52650;SDS011;38537;47.226;39.702;2022-11-20T04:09:53;13.82;;;10.70;;
52650;SDS011;38537;47.226;39.702;2022-11-20T04:12:20;13.65;;;11.20;;
52650;SDS011;38537;47.226;39.702;2022-11-20T04:14:47;15.02;;;11.90;;
52650;SDS011;38537;47.226;39.702;2022-11-20T04:17:14;14.18;;;11.40;;
52650;SDS011;38537;47.226;39.702;2022-11-20T04:19:41;14.50;;;12.10;;
52650;SDS011;38537;47.226;39.702;2022-11-20T04:22:09;15.60;;;11.38;;
52650;SDS011;38537;47.226;39.702;2022-11-20T04:24:38;13.48;;;10.30;;
52650;SDS011;38537;47.226;39.702;2022-11-20T04:27:05;14.10;;;11.00;;
52650;SDS011;38537;47.226;39.702;2022-11-20T04:29:32;13.70;;;10.68;;
52650;SDS011;38537;47.226;39.702;2022-11-20T04:31:59;13.70;;;11.07;;
52650;SDS011;38537;47.226;39.702;2022-11-20T04:34:27;14.40;;;11.45;;
52650;SDS011;38537;47.226;39.702;2022-11-20T04:36:54;15.15;;;11.98;;
52650;SDS011;38537;47.226;39.702;2022-11-20T04:39:21;18.02;;;13.13;;
52650;SDS011;38537;47.226;39.702;2022-11-20T04:41:50;15.82;;;11.80;;
52650;SDS011;38537;47.226;39.702;2022-11-20T04:44:40;20.02;;;13.27;;
52650;SDS011;38537;47.226;39.702;2022-11-20T04:47:07;16.70;;;12.70;;
52650;SDS011;38537;47.226;39.702;2022-11-20T04:49:35;15.88;;;12.77;;
52650;SDS011;38537;47.226;39.702;2022-11-20T04:52:03;15.75;;;12.68;;
52650;SDS011;38537;47.226;39.702;2022-11-20T04:54:30;17.90;;;13.43;;
52650;SDS011;38537;47.226;39.702;2022-11-20T04:56:57;18.42;;;14.02;;
52650;SDS011;38537;47.226;39.702;2022-11-20T04:59:25;17.65;;;13.30;;
52650;SDS011;38537;47.226;39.702;2022-11-20T05:01:52;18.45;;;14.52;;
52650;SDS011;38537;47.226;39.702;2022-11-20T05:04:19;17.35;;;13.85;;
52650;SDS011;38537;47.226;39.702;2022-11-20T05:06:47;19.70;;;13.55;;
52650;SDS011;38537;47.226;39.702;2022-11-20T05:09:14;18.58;;;14.30;;
52650;SDS011;38537;47.226;39.702;2022-11-20T05:11:42;18.75;;;14.23;;
52650;SDS011;38537;47.226;39.702;2022-11-20T05:14:13;19.75;;;15.38;;
52650;SDS011;38537;47.226;39.702;2022-11-20T05:16:40;18.83;;;14.75;;
52650;SDS011;38537;47.226;39.702;2022-11-20T05:19:08;22.98;;;16.50;;
52650;SDS011;38537;47.226;39.702;2022-11-20T05:21:35;19.60;;;14.80;;
52650;SDS011;38537;47.226;39.702;2022-11-20T05:24:02;22.50;;;16.38;;
52650;SDS011;38537;47.226;39.702;2022-11-20T05:26:32;22.95;;;16.15;;
52650;SDS011;38537;47.226;39.702;2022-11-20T05:28:59;23.30;;;16.60;;
52650;SDS011;38537;47.226;39.702;2022-11-20T05:31:27;22.00;;;16.40;;
52650;SDS011;38537;47.226;39.702;2022-11-20T05:33:55;21.95;;;15.18;;
52650;SDS011;38537;47.226;39.702;2022-11-20T05:36:23;25.75;;;17.58;;
52650;SDS011;38537;47.226;39.702;2022-11-20T05:38:51;15.00;;;11.80;;
52650;SDS011;38537;47.226;39.702;2022-11-20T05:41:24;16.35;;;13.27;;
52650;SDS011;38537;47.226;39.702;2022-11-20T05:43:51;21.38;;;16.05;;
52650;SDS011;38537;47.226;39.702;2022-11-20T05:46:19;21.70;;;16.15;;
52650;SDS011;38537;47.226;39.702;2022-11-20T05:48:55;19.08;;;15.50;;
52650;SDS011;38537;47.226;39.702;2022-11-20T05:51:23;21.20;;;15.57;;
52650;SDS011;38537;47.226;39.702;2022-11-20T05:53:51;19.90;;;14.52;;
52650;SDS011;38537;47.226;39.702;2022-11-20T05:56:19;19.30;;;14.05;;
52650;SDS011;38537;47.226;39.702;2022-11-20T05:58:49;20.75;;;14.68;;
52650;SDS011;38537;47.226;39.702;2022-11-20T06:01:18;20.33;;;14.90;;
52650;SDS011;38537;47.226;39.702;2022-11-20T06:03:47;21.58;;;15.10;;
52650;SDS011;38537;47.226;39.702;2022-11-20T06:06:16;24.75;;;16.90;;
52650;SDS011;38537;47.226;39.702;2022-11-20T06:08:44;26.25;;;17.08;;
52650;SDS011;38537;47.226;39.702;2022-11-20T06:11:12;26.30;;;17.88;;
52650;SDS011;38537;47.226;39.702;2022-11-20T06:13:41;27.33;;;18.35;;
52650;SDS011;38537;47.226;39.702;2022-11-20T06:16:09;23.63;;;16.42;;
52650;SDS011;38537;47.226;39.702;2022-11-20T06:18:38;23.52;;;16.17;;
52650;SDS011;38537;47.226;39.702;2022-11-20T06:21:09;23.83;;;16.45;;
52650;SDS011;38537;47.226;39.702;2022-11-20T06:23:39;26.63;;;17.33;;
52650;SDS011;38537;47.226;39.702;2022-11-20T06:26:08;22.35;;;17.08;;
52650;SDS011;38537;47.226;39.702;2022-11-20T06:28:55;28.10;;;19.17;;
52650;SDS011;38537;47.226;39.702;2022-11-20T06:31:23;27.50;;;18.75;;
52650;SDS011;38537;47.226;39.702;2022-11-20T06:33:51;26.55;;;18.58;;
52650;SDS011;38537;47.226;39.702;2022-11-20T06:36:20;23.60;;;17.70;;
52650;SDS011;38537;47.226;39.702;2022-11-20T06:38:48;28.20;;;19.00;;
52650;SDS011;38537;47.226;39.702;2022-11-20T06:41:17;28.05;;;18.98;;
52650;SDS011;38537;47.226;39.702;2022-11-20T06:43:46;27.42;;;18.90;;
52650;SDS011;38537;47.226;39.702;2022-11-20T06:46:15;29.15;;;18.70;;
52650;SDS011;38537;47.226;39.702;2022-11-20T06:48:47;25.92;;;18.45;;
52650;SDS011;38537;47.226;39.702;2022-11-20T06:51:15;30.05;;;20.15;;
52650;SDS011;38537;47.226;39.702;2022-11-20T06:53:42;33.13;;;19.55;;
52650;SDS011;38537;47.226;39.702;2022-11-20T06:56:10;27.73;;;18.48;;
52650;SDS011;38537;47.226;39.702;2022-11-20T06:58:37;26.67;;;18.38;;
52650;SDS011;38537;47.226;39.702;2022-11-20T07:01:05;33.50;;;21.00;;
52650;SDS011;38537;47.226;39.702;2022-11-20T07:03:35;31.92;;;20.90;;
52650;SDS011;38537;47.226;39.702;2022-11-20T07:06:03;33.78;;;21.58;;
52650;SDS011;38537;47.226;39.702;2022-11-20T07:08:31;29.35;;;20.48;;
52650;SDS011;38537;47.226;39.702;2022-11-20T07:11:00;31.70;;;22.45;;
52650;SDS011;38537;47.226;39.702;2022-11-20T07:13:30;31.10;;;21.65;;
52650;SDS011;38537;47.226;39.702;2022-11-20T07:16:02;33.15;;;21.83;;
52650;SDS011;38537;47.226;39.702;2022-11-20T07:18:31;31.63;;;20.67;;
52650;SDS011;38537;47.226;39.702;2022-11-20T07:21:05;29.48;;;19.50;;
52650;SDS011;38537;47.226;39.702;2022-11-20T07:23:35;31.75;;;20.95;;
52650;SDS011;38537;47.226;39.702;2022-11-20T07:26:07;34.45;;;21.45;;
52650;SDS011;38537;47.226;39.702;2022-11-20T07:28:36;36.35;;;22.38;;
52650;SDS011;38537;47.226;39.702;2022-11-20T07:31:04;34.67;;;22.88;;
52650;SDS011;38537;47.226;39.702;2022-11-20T07:33:33;36.10;;;24.45;;
52650;SDS011;38537;47.226;39.702;2022-11-20T07:36:00;35.35;;;23.40;;
52650;SDS011;38537;47.226;39.702;2022-11-20T07:38:28;39.47;;;23.95;;
52650;SDS011;38537;47.226;39.702;2022-11-20T07:40:57;35.17;;;23.90;;
52650;SDS011;38537;47.226;39.702;2022-11-20T07:43:24;35.63;;;22.80;;
52650;SDS011;38537;47.226;39.702;2022-11-20T07:45:54;38.20;;;23.25;;
52650;SDS011;38537;47.226;39.702;2022-11-20T07:48:23;34.90;;;22.45;;
52650;SDS011;38537;47.226;39.702;2022-11-20T07:50:57;35.40;;;22.98;;
52650;SDS011;38537;47.226;39.702;2022-11-20T07:53:25;34.97;;;22.25;;
52650;SDS011;38537;47.226;39.702;2022-11-20T07:55:52;35.85;;;23.15;;
52650;SDS011;38537;47.226;39.702;2022-11-20T07:58:20;38.70;;;22.75;;
52650;SDS011;38537;47.226;39.702;2022-11-20T08:00:48;35.90;;;23.60;;
52650;SDS011;38537;47.226;39.702;2022-11-20T08:03:15;34.45;;;22.38;;
52650;SDS011;38537;47.226;39.702;2022-11-20T08:05:50;32.53;;;21.52;;
52650;SDS011;38537;47.226;39.702;2022-11-20T08:08:18;32.90;;;20.95;;
52650;SDS011;38537;47.226;39.702;2022-11-20T08:10:45;31.15;;;20.25;;
52650;SDS011;38537;47.226;39.702;2022-11-20T08:13:13;34.88;;;20.48;;
52650;SDS011;38537;47.226;39.702;2022-11-20T08:18:26;33.63;;;19.77;;
52650;SDS011;38537;47.226;39.702;2022-11-20T08:21:01;34.58;;;20.95;;
52650;SDS011;38537;47.226;39.702;2022-11-20T08:23:31;33.40;;;21.60;;
52650;SDS011;38537;47.226;39.702;2022-11-20T08:25:59;35.70;;;22.70;;
52650;SDS011;38537;47.226;39.702;2022-11-20T08:28:26;31.83;;;21.23;;
52650;SDS011;38537;47.226;39.702;2022-11-20T08:30:57;42.10;;;22.25;;
52650;SDS011;38537;47.226;39.702;2022-11-20T08:33:29;32.83;;;21.92;;
52650;SDS011;38537;47.226;39.702;2022-11-20T08:36:00;33.63;;;22.45;;
52650;SDS011;38537;47.226;39.702;2022-11-20T08:38:28;35.13;;;22.73;;
52650;SDS011;38537;47.226;39.702;2022-11-20T08:40:59;38.33;;;22.67;;
52650;SDS011;38537;47.226;39.702;2022-11-20T08:43:47;36.83;;;22.38;;
52650;SDS011;38537;47.226;39.702;2022-11-20T08:46:15;38.33;;;23.35;;
52650;SDS011;38537;47.226;39.702;2022-11-20T08:48:42;37.05;;;23.38;;
52650;SDS011;38537;47.226;39.702;2022-11-20T08:51:10;39.28;;;23.55;;
52650;SDS011;38537;47.226;39.702;2022-11-20T08:53:39;38.47;;;23.88;;
52650;SDS011;38537;47.226;39.702;2022-11-20T08:56:06;39.42;;;22.90;;
52650;SDS011;38537;47.226;39.702;2022-11-20T08:58:34;36.58;;;22.63;;
52650;SDS011;38537;47.226;39.702;2022-11-20T09:01:22;34.40;;;21.83;;
52650;SDS011;38537;47.226;39.702;2022-11-20T09:03:54;36.30;;;21.70;;
52650;SDS011;38537;47.226;39.702;2022-11-20T09:06:22;39.92;;;23.50;;
52650;SDS011;38537;47.226;39.702;2022-11-20T09:08:53;39.45;;;23.75;;
52650;SDS011;38537;47.226;39.702;2022-11-20T09:11:21;36.90;;;22.30;;
52650;SDS011;38537;47.226;39.702;2022-11-20T09:13:48;39.83;;;22.52;;
52650;SDS011;38537;47.226;39.702;2022-11-20T09:16:16;41.17;;;22.65;;
52650;SDS011;38537;47.226;39.702;2022-11-20T09:18:43;38.65;;;22.92;;
52650;SDS011;38537;47.226;39.702;2022-11-20T09:21:12;32.90;;;22.40;;
52650;SDS011;38537;47.226;39.702;2022-11-20T09:23:41;38.13;;;23.23;;
52650;SDS011;38537;47.226;39.702;2022-11-20T09:26:12;36.60;;;22.73;;
52650;SDS011;38537;47.226;39.702;2022-11-20T09:28:41;38.65;;;23.27;;
52650;SDS011;38537;47.226;39.702;2022-11-20T09:31:09;37.13;;;23.40;;
52650;SDS011;38537;47.226;39.702;2022-11-20T09:33:46;36.92;;;22.17;;
52650;SDS011;38537;47.226;39.702;2022-11-20T09:36:14;37.25;;;22.88;;
52650;SDS011;38537;47.226;39.702;2022-11-20T09:38:42;39.75;;;22.98;;
52650;SDS011;38537;47.226;39.702;2022-11-20T09:41:10;38.92;;;22.40;;
52650;SDS011;38537;47.226;39.702;2022-11-20T09:44:05;39.70;;;22.23;;
52650;SDS011;38537;47.226;39.702;2022-11-20T09:55:01;31.60;;;19.95;;
52650;SDS011;38537;47.226;39.702;2022-11-20T09:57:37;34.22;;;20.70;;
52650;SDS011;38537;47.226;39.702;2022-11-20T10:00:11;32.25;;;20.60;;
52650;SDS011;38537;47.226;39.702;2022-11-20T10:02:42;34.30;;;19.52;;
52650;SDS011;38537;47.226;39.702;2022-11-20T10:10:40;30.10;;;19.30;;
52650;SDS011;38537;47.226;39.702;2022-11-20T10:24:44;22.92;;;14.63;;
52650;SDS011;38537;47.226;39.702;2022-11-20T10:29:46;21.42;;;14.80;;
52650;SDS011;38537;47.226;39.702;2022-11-20T10:32:20;22.50;;;14.57;;
52650;SDS011;38537;47.226;39.702;2022-11-20T10:34:58;22.92;;;15.50;;
52650;SDS011;38537;47.226;39.702;2022-11-20T10:37:31;22.10;;;14.18;;
52650;SDS011;38537;47.226;39.702;2022-11-20T10:42:47;30.48;;;16.23;;
52650;SDS011;38537;47.226;39.702;2022-11-20T10:50:46;31.10;;;18.27;;
52650;SDS011;38537;47.226;39.702;2022-11-20T10:53:31;27.73;;;17.15;;
52650;SDS011;38537;47.226;39.702;2022-11-20T10:56:19;25.35;;;15.82;;
52650;SDS011;38537;47.226;39.702;2022-11-20T10:59:04;38.20;;;21.10;;
52650;SDS011;38537;47.226;39.702;2022-11-20T11:01:57;34.05;;;18.77;;
52650;SDS011;38537;47.226;39.702;2022-11-20T11:04:40;32.67;;;18.02;;
52650;SDS011;38537;47.226;39.702;2022-11-20T11:07:19;30.52;;;16.67;;
52650;SDS011;38537;47.226;39.702;2022-11-20T11:13:18;35.45;;;19.73;;
52650;SDS011;38537;47.226;39.702;2022-11-20T11:15:47;31.08;;;17.65;;
52650;SDS011;38537;47.226;39.702;2022-11-20T11:18:27;31.65;;;17.45;;
52650;SDS011;38537;47.226;39.702;2022-11-20T11:21:01;33.20;;;17.98;;
52650;SDS011;38537;47.226;39.702;2022-11-20T11:23:32;31.00;;;18.30;;
52650;SDS011;38537;47.226;39.702;2022-11-20T11:26:00;35.13;;;20.10;;
52650;SDS011;38537;47.226;39.702;2022-11-20T11:28:29;36.67;;;20.55;;
52650;SDS011;38537;47.226;39.702;2022-11-20T11:30:57;31.67;;;17.58;;
52650;SDS011;38537;47.226;39.702;2022-11-20T11:33:28;33.85;;;19.17;;
52650;SDS011;38537;47.226;39.702;2022-11-20T11:36:16;32.80;;;20.15;;
52650;SDS011;38537;47.226;39.702;2022-11-20T11:38:48;32.22;;;18.30;;
52650;SDS011;38537;47.226;39.702;2022-11-20T11:41:20;30.75;;;20.08;;
52650;SDS011;38537;47.226;39.702;2022-11-20T11:43:52;27.77;;;17.17;;
52650;SDS011;38537;47.226;39.702;2022-11-20T11:46:55;30.52;;;19.08;;
52650;SDS011;38537;47.226;39.702;2022-11-20T11:49:23;30.95;;;18.85;;
52650;SDS011;38537;47.226;39.702;2022-11-20T11:54:24;31.55;;;18.17;;
52650;SDS011;38537;47.226;39.702;2022-11-20T11:56:58;31.15;;;19.27;;
52650;SDS011;38537;47.226;39.702;2022-11-20T12:15:56;29.98;;;17.98;;
52650;SDS011;38537;47.226;39.702;2022-11-20T12:18:25;27.23;;;16.55;;
52650;SDS011;38537;47.226;39.702;2022-11-20T12:29:32;25.50;;;16.25;;
52650;SDS011;38537;47.226;39.702;2022-11-20T12:32:06;28.15;;;16.65;;
52650;SDS011;38537;47.226;39.702;2022-11-20T12:43:35;26.77;;;16.42;;
52650;SDS011;38537;47.226;39.702;2022-11-20T12:46:38;23.67;;;15.50;;
52650;SDS011;38537;47.226;39.702;2022-11-20T12:49:27;23.23;;;14.18;;
52650;SDS011;38537;47.226;39.702;2022-11-20T13:00:32;20.90;;;14.32;;
52650;SDS011;38537;47.226;39.702;2022-11-20T13:05:59;22.63;;;14.63;;
52650;SDS011;38537;47.226;39.702;2022-11-20T13:08:36;29.30;;;17.02;;
52650;SDS011;38537;47.226;39.702;2022-11-20T13:11:10;27.70;;;17.30;;
52650;SDS011;38537;47.226;39.702;2022-11-20T13:16:38;26.65;;;17.17;;
52650;SDS011;38537;47.226;39.702;2022-11-20T13:19:14;28.27;;;17.58;;
52650;SDS011;38537;47.226;39.702;2022-11-20T13:21:47;30.83;;;17.85;;
52650;SDS011;38537;47.226;39.702;2022-11-20T13:27:05;33.47;;;18.17;;
52650;SDS011;38537;47.226;39.702;2022-11-20T13:29:36;26.75;;;16.10;;
52650;SDS011;38537;47.226;39.702;2022-11-20T13:32:12;28.77;;;17.27;;
52650;SDS011;38537;47.226;39.702;2022-11-20T13:34:51;29.25;;;17.15;;
52650;SDS011;38537;47.226;39.702;2022-11-20T13:37:32;27.55;;;17.17;;
52650;SDS011;38537;47.226;39.702;2022-11-20T13:40:05;25.35;;;16.40;;
52650;SDS011;38537;47.226;39.702;2022-11-20T13:42:35;19.92;;;13.95;;
52650;SDS011;38537;47.226;39.702;2022-11-20T13:45:26;23.95;;;16.00;;
52650;SDS011;38537;47.226;39.702;2022-11-20T13:47:56;24.92;;;15.60;;
52650;SDS011;38537;47.226;39.702;2022-11-20T13:53:48;22.40;;;15.43;;
52650;SDS011;38537;47.226;39.702;2022-11-20T14:02:08;18.77;;;13.23;;
52650;SDS011;38537;47.226;39.702;2022-11-20T14:04:51;23.95;;;15.25;;
52650;SDS011;38537;47.226;39.702;2022-11-20T14:07:22;18.70;;;12.98;;
52650;SDS011;38537;47.226;39.702;2022-11-20T14:09:55;19.90;;;13.68;;
52650;SDS011;38537;47.226;39.702;2022-11-20T14:12:27;20.02;;;14.48;;
52650;SDS011;38537;47.226;39.702;2022-11-20T14:14:56;24.52;;;15.75;;
52650;SDS011;38537;47.226;39.702;2022-11-20T14:17:29;22.55;;;14.80;;
52650;SDS011;38537;47.226;39.702;2022-11-20T14:19:58;20.98;;;14.45;;
52650;SDS011;38537;47.226;39.702;2022-11-20T14:22:29;20.83;;;13.15;;
52650;SDS011;38537;47.226;39.702;2022-11-20T14:25:05;19.40;;;14.02;;
52650;SDS011;38537;47.226;39.702;2022-11-20T14:27:47;20.60;;;14.25;;
52650;SDS011;38537;47.226;39.702;2022-11-20T14:30:21;23.05;;;15.20;;
52650;SDS011;38537;47.226;39.702;2022-11-20T14:32:50;20.92;;;14.55;;
52650;SDS011;38537;47.226;39.702;2022-11-20T14:35:28;25.38;;;13.32;;
52650;SDS011;38537;47.226;39.702;2022-11-20T14:37:57;20.52;;;12.73;;
52650;SDS011;38537;47.226;39.702;2022-11-20T14:42:59;17.70;;;12.38;;
52650;SDS011;38537;47.226;39.702;2022-11-20T14:45:26;19.58;;;12.68;;
52650;SDS011;38537;47.226;39.702;2022-11-20T14:47:55;20.52;;;13.80;;
52650;SDS011;38537;47.226;39.702;2022-11-20T14:50:27;18.58;;;13.13;;
52650;SDS011;38537;47.226;39.702;2022-11-20T14:52:57;20.30;;;14.23;;
52650;SDS011;38537;47.226;39.702;2022-11-20T14:55:27;19.38;;;13.93;;
52650;SDS011;38537;47.226;39.702;2022-11-20T14:58:05;18.65;;;13.63;;
52650;SDS011;38537;47.226;39.702;2022-11-20T15:00:56;21.27;;;14.63;;
52650;SDS011;38537;47.226;39.702;2022-11-20T15:06:04;16.60;;;12.57;;
52650;SDS011;38537;47.226;39.702;2022-11-20T15:08:34;19.75;;;12.50;;
52650;SDS011;38537;47.226;39.702;2022-11-20T15:11:01;20.90;;;13.02;;
52650;SDS011;38537;47.226;39.702;2022-11-20T15:13:36;21.50;;;13.60;;
52650;SDS011;38537;47.226;39.702;2022-11-20T15:16:13;19.63;;;13.55;;
52650;SDS011;38537;47.226;39.702;2022-11-20T15:18:45;21.23;;;13.77;;
52650;SDS011;38537;47.226;39.702;2022-11-20T15:21:14;19.30;;;13.38;;
52650;SDS011;38537;47.226;39.702;2022-11-20T15:23:45;22.70;;;15.15;;
52650;SDS011;38537;47.226;39.702;2022-11-20T15:26:13;20.15;;;14.98;;
52650;SDS011;38537;47.226;39.702;2022-11-20T15:28:46;23.35;;;15.40;;
52650;SDS011;38537;47.226;39.702;2022-11-20T15:31:16;18.80;;;14.20;;
52650;SDS011;38537;47.226;39.702;2022-11-20T15:33:45;20.30;;;14.75;;
52650;SDS011;38537;47.226;39.702;2022-11-20T15:36:13;21.67;;;14.55;;
52650;SDS011;38537;47.226;39.702;2022-11-20T15:38:41;19.10;;;14.63;;
52650;SDS011;38537;47.226;39.702;2022-11-20T15:41:08;20.98;;;15.85;;
52650;SDS011;38537;47.226;39.702;2022-11-20T15:43:38;21.73;;;15.75;;
52650;SDS011;38537;47.226;39.702;2022-11-20T15:46:06;24.65;;;15.50;;
52650;SDS011;38537;47.226;39.702;2022-11-20T15:48:50;19.00;;;13.40;;
52650;SDS011;38537;47.226;39.702;2022-11-20T15:51:34;18.42;;;13.63;;
52650;SDS011;38537;47.226;39.702;2022-11-20T15:54:10;21.20;;;14.90;;
52650;SDS011;38537;47.226;39.702;2022-11-20T15:56:39;22.48;;;14.93;;
52650;SDS011;38537;47.226;39.702;2022-11-20T15:59:06;19.83;;;14.88;;
52650;SDS011;38537;47.226;39.702;2022-11-20T16:01:37;15.77;;;12.50;;
52650;SDS011;38537;47.226;39.702;2022-11-20T16:04:05;18.02;;;13.10;;
52650;SDS011;38537;47.226;39.702;2022-11-20T16:06:39;20.27;;;15.30;;
52650;SDS011;38537;47.226;39.702;2022-11-20T16:09:11;18.90;;;13.35;;
52650;SDS011;38537;47.226;39.702;2022-11-20T16:11:38;21.50;;;13.45;;
52650;SDS011;38537;47.226;39.702;2022-11-20T16:14:08;24.92;;;17.00;;
52650;SDS011;38537;47.226;39.702;2022-11-20T16:17:02;20.63;;;14.45;;
52650;SDS011;38537;47.226;39.702;2022-11-20T16:19:29;20.15;;;14.20;;
52650;SDS011;38537;47.226;39.702;2022-11-20T16:21:57;19.17;;;13.77;;
52650;SDS011;38537;47.226;39.702;2022-11-20T16:24:29;17.20;;;11.80;;
52650;SDS011;38537;47.226;39.702;2022-11-20T16:26:57;16.65;;;13.10;;
52650;SDS011;38537;47.226;39.702;2022-11-20T16:29:25;16.88;;;13.43;;